Latest Weather Observations for Kowanyama

IDQ60801

Issued at 12:22 pm EST Wednesday 1 December 2021 (issued every 10 minutes, with the page automatically refreshed every 10 minutes)

About weather observations | Map of weather stations | Latest weather observations for QLD | Other Formats
Station Details ID: 029038 Name: KOWANYAMA AIRPORT Lat: -15.48 Lon: 141.75 Height: 9.6 m
Data from the previous 72 hours. | See also: Recent months at Kowanyama
Date/Time
EST
Temp
°C
App
Temp
°C
Dew
Point
°C
Rel
Hum
%
Delta-T
°C
Wind Press
QNH
hPa
Press
MSL
hPa
Rain since
9am
mm
Dir  Spd
km/h
Gust
km/h
Spd
kts
Gust
kts
01/12:00pm 34.2 37.0 22.3 50 8.2 SSW 11 15 6 8 1007.7 1007.6 0.0
01/11:30am 33.8 36.4 22.6 52 7.7 S 13 17 7 9 1008.1 1008.0 0.0
01/11:00am 33.6 37.2 22.4 52 7.7 NE 7 11 4 6 1008.4 1008.3 0.0
01/10:30am 32.7 36.4 22.5 55 7.0 NE 7 15 4 8 1008.8 1008.7 0.0
01/10:00am 32.1 35.9 22.8 58 6.4 ENE 7 13 4 7 1009.2 1009.1 0.0
01/09:30am 31.4 34.9 23.5 63 5.5 ENE 11 19 6 10 1009.4 1009.3 0.0
01/09:00am 30.5 33.9 23.4 66 4.9 ENE 11 17 6 9 1009.4 1009.3 11.4
01/08:30am 29.4 33.2 23.4 70 4.1 ENE 9 15 5 8 1009.2 1009.1 11.4
01/08:00am 28.7 33.0 23.6 74 3.5 ESE 7 9 4 5 1009.0 1008.9 11.4
01/07:30am 27.6 32.0 23.4 78 2.9 ENE 6 7 3 4 1008.9 1008.8 11.4
01/07:00am 26.4 30.8 23.5 84 2.0 E 6 9 3 5 1008.9 1008.8 11.4
01/06:30am 25.6 30.0 23.5 88 1.4 E 6 7 3 4 1008.6 1008.5 11.4
01/06:00am 25.1 30.7 23.5 91 1.1 CALM 0 6 0 3 1008.3 1008.2 11.4
01/05:30am 25.2 29.6 23.4 90 1.2 ENE 6 7 3 4 1007.9 1007.8 11.4
01/05:00am 25.3 29.7 23.5 90 1.2 ENE 6 7 3 4 1007.5 1007.4 11.4
01/04:30am 25.4 30.3 23.6 90 1.2 E 4 7 2 4 1007.2 1007.1 11.4
01/04:00am 25.6 29.9 23.7 89 1.3 E 7 9 4 5 1007.1 1007.0 11.4
01/03:30am 25.8 31.4 23.5 87 1.6 CALM 0 0 0 0 1007.1 1007.0 11.4
01/03:00am 25.9 30.4 23.6 87 1.6 NE 6 7 3 4 1007.1 1007.0 11.4
01/02:30am 26.1 30.5 23.4 85 1.8 NE 6 9 3 5 1007.3 1007.2 11.4
01/02:00am 26.5 30.3 23.4 83 2.1 ENE 9 15 5 8 1007.7 1007.6 11.4
01/01:30am 27.0 30.2 23.0 79 2.7 ENE 11 20 6 11 1008.1 1008.0 11.2
01/01:00am 27.2 30.9 23.2 79 2.7 ENE 9 11 5 6 1008.0 1007.9 11.2
01/12:30am 27.3 31.4 24.0 82 2.3 NE 9 15 5 8 1008.3 1008.2 11.2
01/12:00am 27.3 31.8 24.0 82 2.3 NNE 7 11 4 6 1008.4 1008.3 11.2
 
Date/Time
EST
Temp
°C
App
Temp
°C
Dew
Point
°C
Rel
Hum
%
Delta-T
°C
Wind Press
QNH
hPa
Press
MSL
hPa
Rain since
9am
mm
Dir  Spd
km/h
Gust
km/h
Spd
kts
Gust
kts
30/11:30pm 27.2 31.1 24.3 84 2.0 ENE 11 15 6 8 1008.7 1008.6 11.2
30/11:00pm 27.2 31.8 24.1 83 2.1 NNE 7 11 4 6 1008.5 1008.4 11.2
30/10:30pm 27.4 33.3 24.1 82 2.3 CALM 0 4 0 2 1008.4 1008.3 11.2
30/10:00pm 27.3 32.0 24.0 82 2.3 NNE 6 7 3 4 1008.0 1007.9 11.2
30/09:30pm 27.4 33.3 24.1 82 2.3 CALM 0 0 0 0 1007.6 1007.5 11.2
30/09:00pm 27.9 32.3 23.5 77 3.0 WNW 6 9 3 5 1007.3 1007.2 11.2
30/08:30pm 28.1 32.5 23.5 76 3.2 WSW 6 7 3 4 1007.0 1006.9 11.2
30/08:00pm 28.5 32.2 23.2 73 3.6 W 9 11 5 6 1006.9 1006.8 11.2
30/07:30pm 28.9 33.1 23.1 71 4.0 SW 6 11 3 6 1006.3 1006.2 11.2
30/07:00pm 29.2 33.3 22.9 69 4.3 SW 6 7 3 4 1005.8 1005.7 11.2
30/06:30pm 29.9 34.0 23.3 67 4.5 SW 7 9 4 5 1005.7 1005.6 11.2
30/06:00pm 30.1 33.7 23.8 69 4.4 WSW 11 15 6 8 1005.3 1005.2 11.2
30/05:30pm 30.2 33.5 23.9 69 4.4 SW 13 17 7 9 1005.1 1005.0 11.2
30/05:00pm 29.7 33.6 24.8 75 3.4 SW 13 19 7 10 1005.0 1004.9 11.2
30/04:30pm 29.0 32.5 24.8 78 2.9 SW 15 20 8 11 1005.2 1005.1 11.2
30/04:00pm 26.9 31.1 25.3 91 1.1 SW 13 17 7 9 1005.8 1005.7 11.2
30/03:30pm 25.7 29.1 24.7 94 0.7 SSW 15 28 8 15 1006.4 1006.3 11.2
30/03:05pm 25.4 27.4 23.6 90 1.2 SW 19 30 10 16 1006.5 1006.4 11.2
30/03:00pm 25.8 27.1 23.3 86 1.7 WSW 22 35 12 19 1006.5 1006.4 11.2
30/02:44pm 28.9 28.3 22.6 69 4.3 SW 30 46 16 25 1006.4 1006.3 11.2
30/02:40pm 29.6 29.4 22.1 64 5.1 SW 26 46 14 25 1006.1 1006.0 11.2
30/02:30pm 33.4 36.3 23.1 54 7.1 WNW 13 24 7 13 1005.9 1005.8 11.2
30/02:00pm 35.8 37.1 20.1 40 10.5 S 13 19 7 10 1006.0 1005.9 11.2
30/01:30pm 35.2 38.1 21.8 45 9.2 WSW 9 15 5 8 1006.6 1006.5 10.8
30/01:00pm 34.1 36.3 21.2 47 8.7 SW 11 17 6 9 1007.0 1006.9 9.8
30/12:30pm 34.5 36.7 21.9 48 8.6 SE 13 17 7 9 1007.6 1007.5 8.6
30/12:00pm 33.6 35.9 20.7 46 8.7 NE 9 19 5 10 1008.1 1008.0 7.0
30/11:30am 33.9 35.9 19.9 43 9.3 ENE 9 15 5 8 1008.3 1008.2 5.2
30/11:00am 32.7 35.3 21.9 53 7.4 NE 11 19 6 10 1008.5 1008.4 3.0
30/10:30am 31.6 34.0 22.3 57 6.3 ENE 13 20 7 11 1008.7 1008.6 0.6
30/10:00am 31.1 33.9 23.0 62 5.6 ENE 13 17 7 9 1009.1 1009.0 0.4
30/09:30am 30.3 33.4 23.5 67 4.7 ENE 13 19 7 10 1009.3 1009.2 0.2
30/09:00am 29.5 32.0 23.2 69 4.3 ENE 15 26 8 14 1009.3 1009.2 3.8
30/08:30am 29.1 32.6 23.5 72 3.9 E 11 17 6 9 1009.3 1009.2 3.6
30/08:00am 28.2 32.1 23.6 76 3.2 E 9 13 5 7 1009.1 1009.0 3.6
30/07:30am 27.5 32.6 24.6 84 2.0 E 6 7 3 4 1009.0 1008.9 3.4
30/07:00am 26.1 30.6 24.0 88 1.4 SSE 7 9 4 5 1009.0 1008.9 3.2
30/06:30am 25.6 31.7 24.4 93 0.8 CALM 0 0 0 0 1008.6 1008.5 3.0
30/06:00am 25.1 30.2 24.6 97 0.3 SE 6 7 3 4 1008.4 1008.3 3.0
30/05:30am 25.2 30.0 24.5 96 0.5 SE 7 9 4 5 1008.2 1008.1 2.8
30/05:00am 25.3 30.3 24.8 97 0.3 SE 7 9 4 5 1008.2 1008.1 2.6
30/04:30am 25.3 30.2 24.6 96 0.5 S 7 9 4 5 1008.0 1007.9 2.6
30/04:00am 25.5 30.6 24.6 95 0.6 E 6 7 3 4 1007.7 1007.6 2.4
30/03:30am 25.5 30.9 24.5 94 0.7 E 4 9 2 5 1007.6 1007.5 2.2
30/03:00am 25.8 31.0 25.1 96 0.5 ESE 7 11 4 6 1007.8 1007.7 2.0
30/02:30am 25.6 30.7 24.7 95 0.6 E 6 7 3 4 1008.0 1007.9 2.0
30/02:00am 25.6 30.7 24.7 95 0.6 E 6 6 3 3 1008.4 1008.3 1.8
30/01:30am 25.7 31.3 24.8 95 0.6 ESE 4 7 2 4 1008.9 1008.8 1.6
30/01:00am 25.4 31.5 24.5 95 0.6 CALM 0 0 0 0 1009.1 1009.0 1.4
30/12:30am 25.3 30.4 24.6 96 0.5 ENE 6 9 3 5 1009.6 1009.5 1.2
30/12:00am 25.2 30.1 24.7 97 0.3 E 7 9 4 5 1009.8 1009.7 1.2
 
Date/Time
EST
Temp
°C
App
Temp
°C
Dew
Point
°C
Rel
Hum
%
Delta-T
°C
Wind Press
QNH
hPa
Press
MSL
hPa
Rain since
9am
mm
Dir  Spd
km/h
Gust
km/h
Spd
kts
Gust
kts
29/11:30pm 25.1 31.2 24.4 96 0.5 CALM 0 0 0 0 1010.1 1010.0 1.0
29/11:00pm 25.0 30.0 24.5 97 0.3 W 6 9 3 5 1009.9 1009.8 0.8
29/10:30pm 24.8 29.7 24.3 97 0.3 NW 6 9 3 5 1009.7 1009.6 0.8
29/10:00pm 24.6 29.3 24.3 98 0.2 SW 7 9 4 5 1009.9 1009.8 0.6
29/09:30pm 24.5 28.8 24.2 98 0.2 WSW 9 11 5 6 1009.7 1009.6 0.4
29/09:29pm 24.6 28.9 24.3 98 0.2 WSW 9 11 5 6 1009.7 1009.6 0.4
29/09:13pm 24.5 28.6 24.0 97 0.3 E 9 15 5 8 1009.8 1009.7 0.4
29/09:00pm 24.3 26.9 24.0 98 0.2 SE 17 24 9 13 1009.8 1009.7 0.2
29/08:41pm 24.0 25.7 23.1 95 0.6 SSE 19 28 10 15 1009.4 1009.3 0.2
29/08:30pm 24.4 25.5 23.0 92 0.9 SE 22 33 12 18 1009.4 1009.3 0.2
29/08:21pm 24.8 25.2 23.2 91 1.1 SE 26 35 14 19 1009.1 1009.0 0.0
29/08:10pm 25.6 27.9 23.5 88 1.4 ESE 17 30 9 16 1008.8 1008.7 0.0
29/08:00pm 27.2 30.0 23.0 78 2.9 NNE 13 20 7 11 1008.4 1008.3 0.0
29/07:30pm 29.9 33.4 23.6 69 4.3 N 11 20 6 11 1007.5 1007.4 0.0
29/07:00pm 30.3 34.9 24.7 72 3.9 NNW 9 15 5 8 1006.9 1006.8 0.0
29/06:30pm 30.7 34.7 24.4 69 4.4 NW 11 19 6 10 1006.1 1006.0 0.0
29/06:00pm 32.0 35.9 24.3 63 5.4 NW 11 17 6 9 1005.8 1005.7 0.0
29/05:30pm 31.8 33.8 23.6 62 5.7 WNW 19 28 10 15 1005.1 1005.0 0.0
29/05:00pm 32.9 35.1 23.2 56 6.7 NW 17 26 9 14 1004.4 1004.3 0.0
29/04:30pm 34.6 37.0 22.3 48 8.4 SW 13 20 7 11 1004.5 1004.4 0.0
29/04:00pm 34.5 37.1 22.6 50 8.2 WSW 13 20 7 11 1004.8 1004.7 0.0
29/03:30pm 34.0 36.3 23.4 54 7.4 WSW 17 20 9 11 1004.8 1004.7 0.0
29/03:00pm 33.3 36.6 23.9 58 6.6 WSW 13 17 7 9 1005.4 1005.3 0.0
29/02:30pm 30.7 32.7 23.6 66 4.9 WNW 19 26 10 14 1005.8 1005.7 0.0
29/02:00pm 35.2 37.7 20.3 41 10.0 SE 7 19 4 10 1005.8 1005.7 0.0
29/01:30pm 35.3 38.3 21.9 45 9.2 ENE 9 17 5 9 1006.2 1006.1 0.0
29/01:00pm 35.1 36.8 21.0 43 9.5 E 13 19 7 10 1006.8 1006.7 0.0
29/12:30pm 34.2 36.2 21.6 47 8.6 E 13 19 7 10 1007.4 1007.3 0.0
29/12:00pm 34.0 36.2 21.8 49 8.3 ENE 13 19 7 10 1007.9 1007.8 0.0
29/11:30am 32.6 35.1 22.4 55 7.0 E 13 19 7 10 1008.5 1008.4 0.0
29/11:00am 31.7 34.6 23.2 60 5.9 E 13 20 7 11 1009.1 1009.0 0.0
29/10:30am 31.5 34.2 22.8 60 6.0 E 13 19 7 10 1009.4 1009.3 0.0
29/10:00am 29.8 34.1 24.2 72 3.9 NE 9 13 5 7 1009.8 1009.7 0.0
29/09:39am 29.8 33.2 24.0 71 4.0 E 13 19 7 10 1009.9 1009.8 0.0
29/09:30am 30.3 33.9 24.4 70 4.1 E 13 19 7 10 1009.9 1009.8 0.0
29/09:29am 30.2 34.6 25.0 73 3.7 E 11 17 6 9 1010.0 1009.9 0.0
29/09:05am 28.1 32.9 25.1 84 2.1 E 9 17 5 9 1010.2 1010.1 0.0
29/09:00am 27.8 31.9 24.6 83 2.2 ESE 11 17 6 9 1010.1 1010.0 16.6
29/08:36am 27.5 32.0 24.6 84 2.0 E 9 15 5 8 1010.0 1009.9 16.6
29/08:30am 27.4 32.2 24.5 84 2.0 E 7 13 4 7 1009.9 1009.8 16.6
29/08:00am 27.3 31.7 24.4 84 2.0 ESE 9 15 5 8 1009.7 1009.6 16.6
29/07:30am 27.0 31.3 24.3 85 1.9 SE 9 13 5 7 1009.4 1009.3 16.6
29/07:00am 25.8 29.9 24.0 90 1.2 ESE 9 11 5 6 1009.2 1009.1 16.6
29/06:30am 25.3 29.9 24.1 93 0.8 ESE 7 9 4 5 1008.6 1008.5 16.6
29/06:00am 25.0 29.7 24.0 94 0.7 ESE 6 9 3 5 1008.0 1007.9 16.6
29/05:30am 25.0 29.6 23.8 93 0.8 ESE 6 7 3 4 1008.0 1007.9 16.6
29/05:00am 25.1 29.6 23.9 93 0.8 SE 7 9 4 5 1007.9 1007.8 16.6
29/04:30am 24.8 29.2 23.8 94 0.7 ENE 7 9 4 5 1007.7 1007.6 16.6
29/04:00am 24.8 29.5 23.9 95 0.6 ENE 6 9 3 5 1007.8 1007.7 16.6
29/03:30am 24.7 29.3 23.8 95 0.6 ENE 6 7 3 4 1007.9 1007.8 16.6
29/03:00am 24.8 29.8 23.9 95 0.6 N 4 7 2 4 1007.8 1007.7 16.6
29/02:30am 24.8 30.2 23.8 94 0.7 SSE 2 7 1 4 1007.8 1007.7 16.6
29/02:00am 24.8 30.3 23.4 92 1.0 CALM 0 0 0 0 1007.8 1007.7 16.6
29/01:30am 24.8 29.2 23.4 92 1.0 SE 6 7 3 4 1008.3 1008.2 16.6
29/01:00am 24.9 29.6 23.3 91 1.1 SSE 4 6 2 3 1008.8 1008.7 16.6
29/12:30am 25.2 30.2 22.5 85 1.8 CALM 0 0 0 0 1009.1 1009.0 16.6
29/12:00am 25.1 30.4 23.0 88 1.4 CALM 0 0 0 0 1009.6 1009.5 16.6
 
Date/Time
EST
Temp
°C
App
Temp
°C
Dew
Point
°C
Rel
Hum
%
Delta-T
°C
Wind Press
QNH
hPa
Press
MSL
hPa
Rain since
9am
mm
Dir  Spd
km/h
Gust
km/h
Spd
kts
Gust
kts
28/11:30pm 25.1 30.4 23.0 88 1.4 CALM 0 0 0 0 1010.0 1009.9 16.6
28/11:00pm 25.0 29.0 22.7 87 1.6 E 6 9 3 5 1009.9 1009.8 16.6
28/10:30pm 25.1 29.1 22.8 87 1.6 SSE 6 7 3 4 1009.9 1009.8 16.6
28/10:00pm 25.0 29.0 22.7 87 1.6 ENE 6 9 3 5 1009.7 1009.6 16.6
28/09:30pm 25.4 29.1 22.5 84 2.0 ESE 7 9 4 5 1009.4 1009.3 16.6
28/09:00pm 25.4 27.7 22.1 82 2.2 NE 13 22 7 12 1009.6 1009.5 16.6
28/08:30pm 26.0 28.1 23.1 84 2.0 ENE 17 26 9 14 1009.7 1009.6 16.6
28/08:00pm 28.0 29.0 22.2 70 3.9 E 20 35 11 19 1008.9 1008.8 16.4
28/07:30pm 30.0 34.4 23.4 67 4.5 SSW 6 7 3 4 1007.9 1007.8 16.0
28/07:00pm 30.2 33.1 23.1 65 4.9 WNW 13 19 7 10 1006.9 1006.8 15.2
28/06:30pm 31.2 33.5 22.8 61 5.8 W 15 20 8 11 1006.5 1006.4 14.2
28/06:00pm 32.0 33.4 21.8 54 6.9 WNW 17 20 9 11 1005.6 1005.5 12.8
28/05:30pm 32.9 34.8 22.7 55 7.0 W 17 24 9 13 1005.2 1005.1 11.4
28/05:00pm 33.4 34.6 21.5 49 8.1 W 17 26 9 14 1005.1 1005.0 10.0
28/04:30pm 33.7 35.6 22.8 53 7.5 WNW 17 26 9 14 1004.7 1004.6 8.4
28/04:00pm 33.4 34.8 22.5 52 7.5 WNW 19 26 10 14 1004.8 1004.7 6.8
28/03:30pm 33.0 36.7 23.9 59 6.3 N 11 15 6 8 1005.7 1005.6 5.2
28/03:10pm 31.1 34.7 23.0 62 5.6 N 9 15 5 8 1006.1 1006.0 3.6
28/03:00pm 30.0 32.5 22.4 63 5.2 NNE 13 24 7 13 1006.2 1006.1 2.2
28/02:44pm 30.2 35.3 24.1 70 4.2 NE 4 9 2 5 1006.0 1005.9 1.0
28/02:30pm 26.9 30.8 22.9 79 2.7 NNW 7 17 4 9 1006.3 1006.2 0.4
28/02:19pm 25.4 26.2 19.8 71 3.6 N 15 28 8 15 1007.2 1007.1 0.2
28/02:12pm 30.5 32.8 22.7 63 5.3 WNW 15 22 8 12 1007.6 1007.5 0.0
28/02:08pm 33.7 35.1 21.8 49 8.1 W 17 22 9 12 1006.4 1006.3 0.0
28/02:00pm 34.4 35.2 21.4 46 8.8 WSW 19 28 10 15 1006.2 1006.1 0.0
28/01:30pm 37.0 38.3 19.4 35 11.7 NW 11 20 6 11 1006.4 1006.3 0.0
28/01:00pm 35.6 37.0 19.5 38 10.7 NW 11 17 6 9 1007.1 1007.0 0.0
28/12:30pm 35.4 36.5 18.0 35 11.3 S 9 17 5 9 1007.6 1007.5 0.0

Other formats

Comma delimited format used in spreadsheet applications
http://www.bom.gov.au/fwo/IDQ60801/IDQ60801.94268.axf

JavaScript Object Notation format (JSON) in row-major order
http://www.bom.gov.au/fwo/IDQ60801/IDQ60801.94268.json

Data quality

Most of these data are generated automatically and are frequently updated. Quality checks on data are not normally performed. It is possible for incorrect values to appear. Refer to information at About Latest Weather Observations and please check the disclaimer before using these data.